Hlavní strana
METAR-TAF:

METAR-TAF

Letiště :

Kuressaare, Estonsko

zeměpisná šířka: 58-13-48N, zeměpisná délka: 022-30-34E, výška: 4 m

Aktuální stav počasí

Zpráva byla vytvořena před 15 minutami, v 21:20 UTC
Severozápadní vítr 5 kt
Teplota 3°C
Vlhkost vzduchu 87%
Tlak 1027 hPa
Viditelnost 10 km a více

METAR: EEKE 282120Z AUTO 32005KT 9999NDV NCD 03/01 Q1027

Čas: 23:35 (21:35 UTC)

Předpověď počasí

Zpráva byla vytvořena před 6 hodinami a 35 minutami, v 15:00 UTC
Předpověď platná od 28 v 16 UTC do 28 v 22 UTC
Severoseverozápadní vítr 10 kt
Viditelnost 10 km a více
Polojasno ve výšce 3000 ft

TAF: EEKE 281500Z 2816/2822 33010KT 9999 SCT030

Stav a předpovědi počasí z více než 4 000 letišť (zprávy METAR a TAF).

Červené a žluté tečky na mapě představují dostupné meteorologické stanice.

Když kurzor umístíte na tečku, zobrazí se název stanice.

Pak kliknutím zobrazíte stav a předpověď počasí.

Chcete-li změnit mapu, kliknutím na zelené tlačítko se znaménkem +mapu přiblížíte, kliknutím na zelené tlačítko se znaménkem – mapu oddálíte a kliknutím na zelené šipky přejdete na sousední mapy.


METAR-TAF: